sensor_id;sensor_type;location;lat;lon;timestamp;pressure;altitude;pressure_sealevel;temperature;humidity
72892;BME280;61032;50.782;6.818;2024-03-02T00:00:09;99060.34;;;8.28;66.89
72892;BME280;61032;50.782;6.818;2024-03-02T00:01:11;99055.66;;;8.28;66.86
72892;BME280;61032;50.782;6.818;2024-03-02T00:02:12;99065.47;;;8.30;66.75
72892;BME280;61032;50.782;6.818;2024-03-02T00:03:12;99062.28;;;8.27;67.09
72892;BME280;61032;50.782;6.818;2024-03-02T00:04:14;99061.34;;;8.36;66.82
72892;BME280;61032;50.782;6.818;2024-03-02T00:05:19;99060.41;;;8.32;66.93
72892;BME280;61032;50.782;6.818;2024-03-02T00:06:20;99065.66;;;8.37;66.95
72892;BME280;61032;50.782;6.818;2024-03-02T00:07:21;99059.06;;;8.38;66.72
72892;BME280;61032;50.782;6.818;2024-03-02T00:08:24;99054.72;;;8.37;66.78
72892;BME280;61032;50.782;6.818;2024-03-02T00:09:27;99062.25;;;8.40;66.90
72892;BME280;61032;50.782;6.818;2024-03-02T00:10:37;99054.91;;;8.44;66.48
72892;BME280;61032;50.782;6.818;2024-03-02T00:11:39;99049.00;;;8.42;66.87
72892;BME280;61032;50.782;6.818;2024-03-02T00:12:41;99053.78;;;8.45;66.89
72892;BME280;61032;50.782;6.818;2024-03-02T00:13:41;99046.16;;;8.38;66.45
72892;BME280;61032;50.782;6.818;2024-03-02T00:14:42;99051.63;;;8.38;66.62
72892;BME280;61032;50.782;6.818;2024-03-02T00:15:47;99035.75;;;8.44;66.66
72892;BME280;61032;50.782;6.818;2024-03-02T00:16:47;99042.03;;;8.44;66.45
72892;BME280;61032;50.782;6.818;2024-03-02T00:17:53;99035.03;;;8.47;66.21
72892;BME280;61032;50.782;6.818;2024-03-02T00:18:53;99033.91;;;8.48;66.47
72892;BME280;61032;50.782;6.818;2024-03-02T00:19:54;99031.25;;;8.51;66.03
72892;BME280;61032;50.782;6.818;2024-03-02T00:20:55;99039.09;;;8.53;65.89
72892;BME280;61032;50.782;6.818;2024-03-02T00:22:00;99034.50;;;8.57;65.59
72892;BME280;61032;50.782;6.818;2024-03-02T00:23:06;99030.63;;;8.58;65.68
72892;BME280;61032;50.782;6.818;2024-03-02T00:24:31;99034.94;;;8.59;65.57
72892;BME280;61032;50.782;6.818;2024-03-02T00:25:39;99025.16;;;8.58;65.48
72892;BME280;61032;50.782;6.818;2024-03-02T00:26:45;99028.69;;;8.58;65.54
72892;BME280;61032;50.782;6.818;2024-03-02T00:27:48;99025.59;;;8.60;65.50
72892;BME280;61032;50.782;6.818;2024-03-02T00:28:54;99028.41;;;8.64;65.38
72892;BME280;61032;50.782;6.818;2024-03-02T00:29:56;99026.03;;;8.62;65.35
72892;BME280;61032;50.782;6.818;2024-03-02T00:30:58;99029.56;;;8.63;65.21
72892;BME280;61032;50.782;6.818;2024-03-02T00:31:59;99027.63;;;8.63;65.31
72892;BME280;61032;50.782;6.818;2024-03-02T00:33:00;99017.38;;;8.60;65.26
72892;BME280;61032;50.782;6.818;2024-03-02T00:34:05;99019.84;;;8.65;65.34
72892;BME280;61032;50.782;6.818;2024-03-02T00:35:06;99021.69;;;8.61;65.14
72892;BME280;61032;50.782;6.818;2024-03-02T00:36:06;99022.94;;;8.64;65.23
72892;BME280;61032;50.782;6.818;2024-03-02T00:37:08;99024.53;;;8.65;65.01
72892;BME280;61032;50.782;6.818;2024-03-02T00:38:09;99022.16;;;8.63;65.11
72892;BME280;61032;50.782;6.818;2024-03-02T00:39:12;99028.41;;;8.64;65.10
72892;BME280;61032;50.782;6.818;2024-03-02T00:40:13;99031.59;;;8.66;65.18
72892;BME280;61032;50.782;6.818;2024-03-02T00:41:29;99029.22;;;8.64;65.36
72892;BME280;61032;50.782;6.818;2024-03-02T00:42:31;99029.22;;;8.64;65.02
72892;BME280;61032;50.782;6.818;2024-03-02T00:43:53;99021.44;;;8.66;65.05
72892;BME280;61032;50.782;6.818;2024-03-02T00:44:55;99019.16;;;8.68;64.95
72892;BME280;61032;50.782;6.818;2024-03-02T00:45:56;99030.56;;;8.70;64.79
72892;BME280;61032;50.782;6.818;2024-03-02T00:46:56;99035.94;;;8.67;64.61
72892;BME280;61032;50.782;6.818;2024-03-02T00:47:58;99030.72;;;8.61;64.85
72892;BME280;61032;50.782;6.818;2024-03-02T00:49:00;99027.63;;;8.63;64.77
72892;BME280;61032;50.782;6.818;2024-03-02T00:50:01;99030.00;;;8.65;64.80
72892;BME280;61032;50.782;6.818;2024-03-02T00:51:03;99032.66;;;8.61;65.11
72892;BME280;61032;50.782;6.818;2024-03-02T00:52:05;99032.91;;;8.56;65.22
72892;BME280;61032;50.782;6.818;2024-03-02T00:53:10;99031.69;;;8.53;65.19
72892;BME280;61032;50.782;6.818;2024-03-02T00:54:11;99027.44;;;8.56;65.05
72892;BME280;61032;50.782;6.818;2024-03-02T00:55:12;99025.78;;;8.51;65.08
72892;BME280;61032;50.782;6.818;2024-03-02T00:56:12;99028.13;;;8.53;64.91
72892;BME280;61032;50.782;6.818;2024-03-02T00:57:12;99027.72;;;8.51;65.35
72892;BME280;61032;50.782;6.818;2024-03-02T00:58:13;99028.59;;;8.55;65.14
72892;BME280;61032;50.782;6.818;2024-03-02T00:59:14;99032.81;;;8.52;65.00
72892;BME280;61032;50.782;6.818;2024-03-02T01:00:15;99037.53;;;8.52;65.17
72892;BME280;61032;50.782;6.818;2024-03-02T01:01:18;99035.56;;;8.52;65.19
72892;BME280;61032;50.782;6.818;2024-03-02T01:02:19;99039.88;;;8.53;65.36
72892;BME280;61032;50.782;6.818;2024-03-02T01:03:20;99038.22;;;8.49;65.16
72892;BME280;61032;50.782;6.818;2024-03-02T01:04:20;99030.28;;;8.44;65.47
72892;BME280;61032;50.782;6.818;2024-03-02T01:05:21;99034.50;;;8.41;65.52
72892;BME280;61032;50.782;6.818;2024-03-02T01:06:21;99035.75;;;8.44;65.76
72892;BME280;61032;50.782;6.818;2024-03-02T01:07:22;99030.28;;;8.44;65.72
72892;BME280;61032;50.782;6.818;2024-03-02T01:08:23;99040.44;;;8.43;65.85
72892;BME280;61032;50.782;6.818;2024-03-02T01:09:24;99039.81;;;8.50;65.31
72892;BME280;61032;50.782;6.818;2024-03-02T01:10:24;99040.53;;;8.47;65.53
72892;BME280;61032;50.782;6.818;2024-03-02T01:11:25;99026.47;;;8.48;65.26
72892;BME280;61032;50.782;6.818;2024-03-02T01:12:26;99039.88;;;8.53;65.18
72892;BME280;61032;50.782;6.818;2024-03-02T01:13:27;99034.06;;;8.55;65.28
72892;BME280;61032;50.782;6.818;2024-03-02T01:14:27;99035.66;;;8.56;64.91
72892;BME280;61032;50.782;6.818;2024-03-02T01:15:28;99029.38;;;8.55;65.07
72892;BME280;61032;50.782;6.818;2024-03-02T01:16:29;99027.00;;;8.54;65.23
72892;BME280;61032;50.782;6.818;2024-03-02T01:17:29;99031.31;;;8.55;65.25
72892;BME280;61032;50.782;6.818;2024-03-02T01:18:29;99031.25;;;8.51;65.45
72892;BME280;61032;50.782;6.818;2024-03-02T01:19:30;99031.25;;;8.51;65.70
72892;BME280;61032;50.782;6.818;2024-03-02T01:20:31;99033.63;;;8.53;65.46
72892;BME280;61032;50.782;6.818;2024-03-02T01:21:31;99031.31;;;8.55;65.34
72892;BME280;61032;50.782;6.818;2024-03-02T01:22:32;99027.88;;;8.58;65.51
72892;BME280;61032;50.782;6.818;2024-03-02T01:23:32;99034.50;;;8.57;65.68
72892;BME280;61032;50.782;6.818;2024-03-02T01:24:32;99032.81;;;8.52;65.57
72892;BME280;61032;50.782;6.818;2024-03-02T01:25:33;99027.34;;;8.52;65.66
72892;BME280;61032;50.782;6.818;2024-03-02T01:26:33;99035.16;;;8.50;65.91
72892;BME280;61032;50.782;6.818;2024-03-02T01:27:34;99025.69;;;8.48;65.89
72892;BME280;61032;50.782;6.818;2024-03-02T01:28:34;99023.19;;;8.43;65.89
72892;BME280;61032;50.782;6.818;2024-03-02T01:29:34;99026.38;;;8.45;65.76
72892;BME280;61032;50.782;6.818;2024-03-02T01:30:35;99022.94;;;8.48;66.28
72892;BME280;61032;50.782;6.818;2024-03-02T01:31:35;99022.94;;;8.48;66.39
72892;BME280;61032;50.782;6.818;2024-03-02T01:32:37;99024.78;;;8.44;66.21
72892;BME280;61032;50.782;6.818;2024-03-02T01:33:38;99026.38;;;8.45;66.42
72892;BME280;61032;50.782;6.818;2024-03-02T01:34:39;99023.91;;;8.40;66.50
72892;BME280;61032;50.782;6.818;2024-03-02T01:35:39;99023.09;;;8.39;66.45
72892;BME280;61032;50.782;6.818;2024-03-02T01:36:39;99023.09;;;8.39;66.62
72892;BME280;61032;50.782;6.818;2024-03-02T01:37:40;99016.84;;;8.39;66.43
72892;BME280;61032;50.782;6.818;2024-03-02T01:38:41;99017.63;;;8.39;66.53
72892;BME280;61032;50.782;6.818;2024-03-02T01:39:41;99021.25;;;8.43;66.52
72892;BME280;61032;50.782;6.818;2024-03-02T01:40:42;99024.34;;;8.42;66.52
72892;BME280;61032;50.782;6.818;2024-03-02T01:41:42;99026.03;;;8.46;66.43
72892;BME280;61032;50.782;6.818;2024-03-02T01:42:43;99026.75;;;8.43;66.48
72892;BME280;61032;50.782;6.818;2024-03-02T01:43:43;99025.94;;;8.43;66.43
72892;BME280;61032;50.782;6.818;2024-03-02T01:44:43;99024.78;;;8.44;66.60
72892;BME280;61032;50.782;6.818;2024-03-02T01:45:44;99022.66;;;8.37;67.08
72892;BME280;61032;50.782;6.818;2024-03-02T01:46:44;99022.66;;;8.37;66.75
72892;BME280;61032;50.782;6.818;2024-03-02T01:47:45;99023.00;;;8.36;67.02
72892;BME280;61032;50.782;6.818;2024-03-02T01:48:45;99028.03;;;8.34;67.23
72892;BME280;61032;50.782;6.818;2024-03-02T01:49:45;99021.75;;;8.33;67.32
72892;BME280;61032;50.782;6.818;2024-03-02T01:50:46;99019.91;;;8.37;67.07
72892;BME280;61032;50.782;6.818;2024-03-02T01:51:46;99030.06;;;8.37;67.06
72892;BME280;61032;50.782;6.818;2024-03-02T01:52:46;99022.22;;;8.35;67.24
72892;BME280;61032;50.782;6.818;2024-03-02T01:53:47;99025.50;;;8.41;67.30
72892;BME280;61032;50.782;6.818;2024-03-02T01:54:47;99017.19;;;8.37;67.21
72892;BME280;61032;50.782;6.818;2024-03-02T01:55:48;99021.59;;;8.42;66.98
72892;BME280;61032;50.782;6.818;2024-03-02T01:56:48;99017.28;;;8.41;67.05
72892;BME280;61032;50.782;6.818;2024-03-02T01:57:49;99012.94;;;8.40;67.12
72892;BME280;61032;50.782;6.818;2024-03-02T01:58:51;99016.84;;;8.39;67.04
72892;BME280;61032;50.782;6.818;2024-03-02T01:59:51;99012.94;;;8.40;67.16
72892;BME280;61032;50.782;6.818;2024-03-02T02:00:53;99019.13;;;8.37;66.98
72892;BME280;61032;50.782;6.818;2024-03-02T02:01:53;99022.31;;;8.39;67.41
72892;BME280;61032;50.782;6.818;2024-03-02T02:02:54;99012.16;;;8.39;67.51
72892;BME280;61032;50.782;6.818;2024-03-02T02:03:54;99016.03;;;8.38;67.20
72892;BME280;61032;50.782;6.818;2024-03-02T02:04:55;99019.56;;;8.39;67.16
72892;BME280;61032;50.782;6.818;2024-03-02T02:05:56;99023.81;;;8.36;67.46
72892;BME280;61032;50.782;6.818;2024-03-02T02:06:56;99018.06;;;8.41;67.23
72892;BME280;61032;50.782;6.818;2024-03-02T02:07:57;99014.19;;;8.42;67.12
72892;BME280;61032;50.782;6.818;2024-03-02T02:08:58;99013.13;;;8.47;67.22
72892;BME280;61032;50.782;6.818;2024-03-02T02:09:59;99015.44;;;8.45;67.03
72892;BME280;61032;50.782;6.818;2024-03-02T02:10:59;99015.44;;;8.45;67.20
72892;BME280;61032;50.782;6.818;2024-03-02T02:11:59;99013.41;;;8.42;67.25
72892;BME280;61032;50.782;6.818;2024-03-02T02:13:00;99012.16;;;8.39;67.42
72892;BME280;61032;50.782;6.818;2024-03-02T02:14:00;99013.75;;;8.40;67.47
72892;BME280;61032;50.782;6.818;2024-03-02T02:15:01;99010.66;;;8.42;67.49
72892;BME280;61032;50.782;6.818;2024-03-02T02:16:06;99012.25;;;8.43;67.76
72892;BME280;61032;50.782;6.818;2024-03-02T02:17:07;99012.16;;;8.39;67.56
72892;BME280;61032;50.782;6.818;2024-03-02T02:18:07;99003.41;;;8.34;67.70
72892;BME280;61032;50.782;6.818;2024-03-02T02:19:08;99009.66;;;8.34;67.74
72892;BME280;61032;50.782;6.818;2024-03-02T02:20:08;99005.66;;;8.32;67.78
72892;BME280;61032;50.782;6.818;2024-03-02T02:21:09;99008.34;;;8.28;67.90
72892;BME280;61032;50.782;6.818;2024-03-02T02:22:10;99006.47;;;8.32;67.96
72892;BME280;61032;50.782;6.818;2024-03-02T02:23:10;99019.13;;;8.37;67.80
72892;BME280;61032;50.782;6.818;2024-03-02T02:24:13;99013.31;;;8.38;67.83
72892;BME280;61032;50.782;6.818;2024-03-02T02:25:14;99013.31;;;8.38;67.76
72892;BME280;61032;50.782;6.818;2024-03-02T02:26:14;99020.03;;;8.41;67.75
72892;BME280;61032;50.782;6.818;2024-03-02T02:27:14;99014.53;;;8.41;67.67
72892;BME280;61032;50.782;6.818;2024-03-02T02:28:15;99017.19;;;8.37;67.89
72892;BME280;61032;50.782;6.818;2024-03-02T02:29:16;99018.22;;;8.33;67.87
72892;BME280;61032;50.782;6.818;2024-03-02T02:30:27;99008.88;;;8.34;68.31
72892;BME280;61032;50.782;6.818;2024-03-02T02:31:36;99010.47;;;8.35;68.16
72892;BME280;61032;50.782;6.818;2024-03-02T02:32:37;99006.47;;;8.32;68.13
72892;BME280;61032;50.782;6.818;2024-03-02T02:33:39;99010.47;;;8.35;68.21
72892;BME280;61032;50.782;6.818;2024-03-02T02:34:40;99008.22;;;8.24;68.56
72892;BME280;61032;50.782;6.818;2024-03-02T02:35:40;99009.81;;;8.25;68.53
72892;BME280;61032;50.782;6.818;2024-03-02T02:36:41;99010.28;;;8.27;68.65
72892;BME280;61032;50.782;6.818;2024-03-02T02:37:42;99007.53;;;8.27;68.56
72892;BME280;61032;50.782;6.818;2024-03-02T02:38:46;99004.25;;;8.22;68.85
72892;BME280;61032;50.782;6.818;2024-03-02T02:39:48;99004.69;;;8.24;68.63
72892;BME280;61032;50.782;6.818;2024-03-02T02:40:48;99009.47;;;8.27;68.63
72892;BME280;61032;50.782;6.818;2024-03-02T02:41:49;99007.88;;;8.26;68.56
72892;BME280;61032;50.782;6.818;2024-03-02T02:42:49;99013.00;;;8.27;68.74
72892;BME280;61032;50.782;6.818;2024-03-02T02:43:52;99012.66;;;8.29;68.50
72892;BME280;61032;50.782;6.818;2024-03-02T02:44:52;99003.19;;;8.26;68.53
72892;BME280;61032;50.782;6.818;2024-03-02T02:45:52;99008.34;;;8.28;68.58
72892;BME280;61032;50.782;6.818;2024-03-02T02:46:53;99006.38;;;8.28;68.70
72892;BME280;61032;50.782;6.818;2024-03-02T02:47:53;99004.88;;;8.31;68.87
72892;BME280;61032;50.782;6.818;2024-03-02T02:48:53;99003.66;;;8.28;68.52
72892;BME280;61032;50.782;6.818;2024-03-02T02:49:54;99005.59;;;8.28;68.60
72892;BME280;61032;50.782;6.818;2024-03-02T02:50:54;99001.34;;;8.31;68.56
72892;BME280;61032;50.782;6.818;2024-03-02T02:51:54;98999.06;;;8.33;68.70
72892;BME280;61032;50.782;6.818;2024-03-02T02:52:55;99000.47;;;8.26;68.92
72892;BME280;61032;50.782;6.818;2024-03-02T02:53:55;99002.06;;;8.27;68.91
72892;BME280;61032;50.782;6.818;2024-03-02T02:54:56;98998.72;;;8.34;68.75
72892;BME280;61032;50.782;6.818;2024-03-02T02:55:56;99005.44;;;8.37;68.43
72892;BME280;61032;50.782;6.818;2024-03-02T02:56:57;99001.28;;;8.43;68.40
72892;BME280;61032;50.782;6.818;2024-03-02T02:57:57;99000.41;;;8.39;68.39
72892;BME280;61032;50.782;6.818;2024-03-02T02:58:57;99004.28;;;8.38;68.58
72892;BME280;61032;50.782;6.818;2024-03-02T02:59:58;99003.84;;;8.36;68.37
72892;BME280;61032;50.782;6.818;2024-03-02T03:00:58;99001.91;;;8.36;68.46
72892;BME280;61032;50.782;6.818;2024-03-02T03:01:58;99009.66;;;8.34;68.55
72892;BME280;61032;50.782;6.818;2024-03-02T03:02:59;98999.88;;;8.33;68.56
72892;BME280;61032;50.782;6.818;2024-03-02T03:03:59;99005.44;;;8.37;68.60
72892;BME280;61032;50.782;6.818;2024-03-02T03:04:59;99004.09;;;8.31;68.57
72892;BME280;61032;50.782;6.818;2024-03-02T03:06:00;99009.56;;;8.31;68.88
72892;BME280;61032;50.782;6.818;2024-03-02T03:07:00;99007.19;;;8.29;68.74
72892;BME280;61032;50.782;6.818;2024-03-02T03:08:02;99010.38;;;8.31;68.80
72892;BME280;61032;50.782;6.818;2024-03-02T03:09:03;99001.81;;;8.33;68.68
72892;BME280;61032;50.782;6.818;2024-03-02T03:10:04;99005.34;;;8.33;68.98
72892;BME280;61032;50.782;6.818;2024-03-02T03:11:04;99001.91;;;8.36;68.62
72892;BME280;61032;50.782;6.818;2024-03-02T03:12:05;98995.28;;;8.37;69.04
72892;BME280;61032;50.782;6.818;2024-03-02T03:13:05;99000.41;;;8.39;68.47
72892;BME280;61032;50.782;6.818;2024-03-02T03:14:08;99001.28;;;8.43;68.41
72892;BME280;61032;50.782;6.818;2024-03-02T03:15:09;98996.25;;;8.45;68.37
72892;BME280;61032;50.782;6.818;2024-03-02T03:16:10;98999.88;;;8.49;68.18
72892;BME280;61032;50.782;6.818;2024-03-02T03:17:10;98999.53;;;8.50;68.17
72892;BME280;61032;50.782;6.818;2024-03-02T03:18:10;98994.91;;;8.54;68.24
72892;BME280;61032;50.782;6.818;2024-03-02T03:19:11;98998.09;;;8.56;67.95
72892;BME280;61032;50.782;6.818;2024-03-02T03:20:11;99001.19;;;8.55;67.87
72892;BME280;61032;50.782;6.818;2024-03-02T03:21:12;99003.94;;;8.55;67.86
72892;BME280;61032;50.782;6.818;2024-03-02T03:22:12;99012.59;;;8.57;68.05
72892;BME280;61032;50.782;6.818;2024-03-02T03:23:13;99016.47;;;8.56;68.15
72892;BME280;61032;50.782;6.818;2024-03-02T03:24:16;99016.94;;;8.58;68.03
72892;BME280;61032;50.782;6.818;2024-03-02T03:25:16;99013.84;;;8.59;67.88
72892;BME280;61032;50.782;6.818;2024-03-02T03:26:17;99017.03;;;8.61;67.85
72892;BME280;61032;50.782;6.818;2024-03-02T03:27:17;99012.78;;;8.64;67.64
72892;BME280;61032;50.782;6.818;2024-03-02T03:28:18;99019.06;;;8.65;67.81
72892;BME280;61032;50.782;6.818;2024-03-02T03:29:18;99017.91;;;8.66;67.69
72892;BME280;61032;50.782;6.818;2024-03-02T03:30:19;99025.34;;;8.65;67.52
72892;BME280;61032;50.782;6.818;2024-03-02T03:31:19;99018.25;;;8.64;67.57
72892;BME280;61032;50.782;6.818;2024-03-02T03:32:19;99022.50;;;8.61;67.57
72892;BME280;61032;50.782;6.818;2024-03-02T03:33:20;99016.66;;;8.63;67.81
72892;BME280;61032;50.782;6.818;2024-03-02T03:34:20;99024.44;;;8.61;67.63
72892;BME280;61032;50.782;6.818;2024-03-02T03:35:20;99018.25;;;8.64;67.58
72892;BME280;61032;50.782;6.818;2024-03-02T03:36:21;99018.25;;;8.64;67.19
72892;BME280;61032;50.782;6.818;2024-03-02T03:37:21;99018.25;;;8.64;67.52
72892;BME280;61032;50.782;6.818;2024-03-02T03:38:21;99008.91;;;8.65;67.42
72892;BME280;61032;50.782;6.818;2024-03-02T03:39:22;99007.75;;;8.66;67.39
72892;BME280;61032;50.782;6.818;2024-03-02T03:40:22;99004.66;;;8.68;67.39
72892;BME280;61032;50.782;6.818;2024-03-02T03:41:23;98999.63;;;8.70;67.20
72892;BME280;61032;50.782;6.818;2024-03-02T03:42:24;99002.06;;;8.75;67.18
72892;BME280;61032;50.782;6.818;2024-03-02T03:43:25;99008.88;;;8.81;66.56
72892;BME280;61032;50.782;6.818;2024-03-02T03:44:25;99006.13;;;8.81;66.34
72892;BME280;61032;50.782;6.818;2024-03-02T03:45:25;99008.09;;;8.80;66.48
72892;BME280;61032;50.782;6.818;2024-03-02T03:46:26;99011.63;;;8.81;66.32
72892;BME280;61032;50.782;6.818;2024-03-02T03:47:27;99010.56;;;8.85;66.08
72892;BME280;61032;50.782;6.818;2024-03-02T03:48:27;99013.03;;;8.90;65.91
72892;BME280;61032;50.782;6.818;2024-03-02T03:49:30;99011.53;;;8.93;65.49
72892;BME280;61032;50.782;6.818;2024-03-02T03:50:31;99011.41;;;9.05;64.93
72892;BME280;61032;50.782;6.818;2024-03-02T03:51:31;99004.16;;;9.13;63.98
72892;BME280;61032;50.782;6.818;2024-03-02T03:52:31;99007.69;;;9.13;63.78
72892;BME280;61032;50.782;6.818;2024-03-02T03:53:32;99010.03;;;9.15;63.80
72892;BME280;61032;50.782;6.818;2024-03-02T03:54:32;99008.97;;;9.19;63.28
72892;BME280;61032;50.782;6.818;2024-03-02T03:55:33;99008.72;;;9.24;63.38
72892;BME280;61032;50.782;6.818;2024-03-02T03:56:33;99012.25;;;9.25;63.67
72892;BME280;61032;50.782;6.818;2024-03-02T03:57:33;99002.50;;;9.27;63.23
72892;BME280;61032;50.782;6.818;2024-03-02T03:58:34;98999.41;;;9.29;63.41
72892;BME280;61032;50.782;6.818;2024-03-02T03:59:34;99000.22;;;9.29;62.97
72892;BME280;61032;50.782;6.818;2024-03-02T04:00:34;99003.22;;;9.24;63.01
72892;BME280;61032;50.782;6.818;2024-03-02T04:01:35;99015.88;;;9.29;63.08
72892;BME280;61032;50.782;6.818;2024-03-02T04:02:36;99013.47;;;9.27;62.88
72892;BME280;61032;50.782;6.818;2024-03-02T04:03:36;99018.09;;;9.23;63.33
72892;BME280;61032;50.782;6.818;2024-03-02T04:04:37;99015.78;;;9.25;63.31
72892;BME280;61032;50.782;6.818;2024-03-02T04:05:38;99015.00;;;9.25;63.40
72892;BME280;61032;50.782;6.818;2024-03-02T04:06:38;99022.78;;;9.23;63.34
72892;BME280;61032;50.782;6.818;2024-03-02T04:07:39;99019.59;;;9.21;63.23
72892;BME280;61032;50.782;6.818;2024-03-02T04:08:41;99018.44;;;9.22;63.57
72892;BME280;61032;50.782;6.818;2024-03-02T04:09:41;99020.03;;;9.23;63.64
72892;BME280;61032;50.782;6.818;2024-03-02T04:10:42;99021.28;;;9.25;63.40
72892;BME280;61032;50.782;6.818;2024-03-02T04:11:42;99018.53;;;9.25;63.17
72892;BME280;61032;50.782;6.818;2024-03-02T04:12:43;99013.75;;;9.22;63.20
72892;BME280;61032;50.782;6.818;2024-03-02T04:13:43;99010.22;;;9.22;63.30
72892;BME280;61032;50.782;6.818;2024-03-02T04:14:43;99012.53;;;9.20;63.62
72892;BME280;61032;50.782;6.818;2024-03-02T04:15:44;99019.88;;;9.16;63.50
72892;BME280;61032;50.782;6.818;2024-03-02T04:16:44;99019.44;;;9.14;63.34
72892;BME280;61032;50.782;6.818;2024-03-02T04:17:45;99021.00;;;9.15;63.27
72892;BME280;61032;50.782;6.818;2024-03-02T04:18:45;99020.59;;;9.13;63.50
72892;BME280;61032;50.782;6.818;2024-03-02T04:19:45;99024.19;;;9.17;63.93
72892;BME280;61032;50.782;6.818;2024-03-02T04:20:46;99023.41;;;9.16;63.38
72892;BME280;61032;50.782;6.818;2024-03-02T04:21:46;99022.69;;;9.19;63.70
72892;BME280;61032;50.782;6.818;2024-03-02T04:22:46;99021.19;;;9.22;63.77
72892;BME280;61032;50.782;6.818;2024-03-02T04:23:47;99028.88;;;9.16;63.93
72892;BME280;61032;50.782;6.818;2024-03-02T04:24:47;99027.72;;;9.17;63.73
72892;BME280;61032;50.782;6.818;2024-03-02T04:25:48;99024.19;;;9.17;63.46
72892;BME280;61032;50.782;6.818;2024-03-02T04:26:48;99032.78;;;9.15;63.68
72892;BME280;61032;50.782;6.818;2024-03-02T04:27:48;99021.81;;;9.15;63.77
72892;BME280;61032;50.782;6.818;2024-03-02T04:28:49;99033.16;;;9.14;63.63
72892;BME280;61032;50.782;6.818;2024-03-02T04:29:49;99031.22;;;9.14;64.00
72892;BME280;61032;50.782;6.818;2024-03-02T04:30:49;99027.28;;;9.15;63.75
72892;BME280;61032;50.782;6.818;2024-03-02T04:31:50;99028.09;;;9.16;64.08
72892;BME280;61032;50.782;6.818;2024-03-02T04:32:50;99033.56;;;9.16;63.74
72892;BME280;61032;50.782;6.818;2024-03-02T04:33:50;99035.47;;;9.12;63.68
72892;BME280;61032;50.782;6.818;2024-03-02T04:34:51;99038.13;;;9.08;64.05
72892;BME280;61032;50.782;6.818;2024-03-02T04:35:51;99044.41;;;9.09;64.20
72892;BME280;61032;50.782;6.818;2024-03-02T04:36:52;99036.97;;;9.09;63.95
72892;BME280;61032;50.782;6.818;2024-03-02T04:37:52;99037.06;;;9.13;63.75
72892;BME280;61032;50.782;6.818;2024-03-02T04:38:52;99037.06;;;9.13;63.84
72892;BME280;61032;50.782;6.818;2024-03-02T04:39:53;99042.81;;;9.08;63.50
72892;BME280;61032;50.782;6.818;2024-03-02T04:40:53;99045.91;;;9.06;64.02
72892;BME280;61032;50.782;6.818;2024-03-02T04:41:54;99045.09;;;9.06;64.21
72892;BME280;61032;50.782;6.818;2024-03-02T04:42:54;99044.66;;;9.04;64.44
72892;BME280;61032;50.782;6.818;2024-03-02T04:43:55;99050.41;;;8.99;63.94
72892;BME280;61032;50.782;6.818;2024-03-02T04:44:55;99047.66;;;8.99;64.25
72892;BME280;61032;50.782;6.818;2024-03-02T04:45:55;99057.38;;;8.96;64.48
72892;BME280;61032;50.782;6.818;2024-03-02T04:46:56;99048.72;;;8.94;64.57
72892;BME280;61032;50.782;6.818;2024-03-02T04:47:56;99051.09;;;8.95;64.38
72892;BME280;61032;50.782;6.818;2024-03-02T04:48:56;99050.31;;;8.95;64.46
72892;BME280;61032;50.782;6.818;2024-03-02T04:49:57;99053.50;;;8.97;64.26
72892;BME280;61032;50.782;6.818;2024-03-02T04:50:57;99061.28;;;8.95;64.33
72892;BME280;61032;50.782;6.818;2024-03-02T04:51:58;99054.59;;;8.92;64.67
72892;BME280;61032;50.782;6.818;2024-03-02T04:52:58;99058.81;;;8.90;64.82
72892;BME280;61032;50.782;6.818;2024-03-02T04:53:58;99059.19;;;8.88;64.87
72892;BME280;61032;50.782;6.818;2024-03-02T04:54:59;99060.31;;;8.87;64.76
72892;BME280;61032;50.782;6.818;2024-03-02T04:56:18;99062.63;;;8.85;65.11
72892;BME280;61032;50.782;6.818;2024-03-02T04:57:37;99060.59;;;8.82;64.97
72892;BME280;61032;50.782;6.818;2024-03-02T04:58:37;99064.66;;;8.88;64.79
72892;BME280;61032;50.782;6.818;2024-03-02T04:59:38;99059.53;;;8.87;64.56
72892;BME280;61032;50.782;6.818;2024-03-02T05:00:38;99061.03;;;8.84;64.85
72892;BME280;61032;50.782;6.818;2024-03-02T05:01:38;99056.34;;;8.85;64.76
72892;BME280;61032;50.782;6.818;2024-03-02T05:02:39;99054.66;;;8.80;64.92
72892;BME280;61032;50.782;6.818;2024-03-02T05:03:39;99054.22;;;8.78;64.76
72892;BME280;61032;50.782;6.818;2024-03-02T05:04:40;99052.53;;;8.74;64.85
72892;BME280;61032;50.782;6.818;2024-03-02T05:05:40;99049.78;;;8.74;64.83
72892;BME280;61032;50.782;6.818;2024-03-02T05:06:41;99051.31;;;8.71;65.20
72892;BME280;61032;50.782;6.818;2024-03-02T05:07:42;99048.50;;;8.68;65.07
72892;BME280;61032;50.782;6.818;2024-03-02T05:08:44;99044.94;;;8.67;65.28
72892;BME280;61032;50.782;6.818;2024-03-02T05:09:45;99044.06;;;8.63;65.52
72892;BME280;61032;50.782;6.818;2024-03-02T05:10:45;99037.69;;;8.59;65.82
72892;BME280;61032;50.782;6.818;2024-03-02T05:11:45;99055.63;;;8.56;65.74
72892;BME280;61032;50.782;6.818;2024-03-02T05:12:59;99048.66;;;8.59;65.95
72892;BME280;61032;50.782;6.818;2024-03-02T05:13:59;99044.56;;;8.53;65.94
72892;BME280;61032;50.782;6.818;2024-03-02T05:15:00;99052.72;;;8.49;66.08
72892;BME280;61032;50.782;6.818;2024-03-02T05:16:00;99046.91;;;8.51;66.15
72892;BME280;61032;50.782;6.818;2024-03-02T05:17:01;99045.31;;;8.50;66.28
72892;BME280;61032;50.782;6.818;2024-03-02T05:18:01;99041.31;;;8.47;66.41
72892;BME280;61032;50.782;6.818;2024-03-02T05:19:05;99049.88;;;8.46;66.35
72892;BME280;61032;50.782;6.818;2024-03-02T05:20:07;99044.31;;;8.42;66.65
72892;BME280;61032;50.782;6.818;2024-03-02T05:21:08;99036.44;;;8.41;66.65
72892;BME280;61032;50.782;6.818;2024-03-02T05:22:08;99038.75;;;8.39;66.68
72892;BME280;61032;50.782;6.818;2024-03-02T05:23:09;99037.16;;;8.38;66.39
72892;BME280;61032;50.782;6.818;2024-03-02T05:24:09;99036.34;;;8.37;66.60
72892;BME280;61032;50.782;6.818;2024-03-02T05:25:09;99038.75;;;8.39;66.75
72892;BME280;61032;50.782;6.818;2024-03-02T05:26:10;99036.44;;;8.41;66.67
72892;BME280;61032;50.782;6.818;2024-03-02T05:27:12;99042.19;;;8.36;66.86
72892;BME280;61032;50.782;6.818;2024-03-02T05:28:13;99045.16;;;8.31;66.80